sensor_id;sensor_type;location;lat;lon;timestamp;temperature;humidity
56542;DHT22;42438;53.174;6.730;2022-08-14T00:00:58;20.80;97.20
56542;DHT22;42438;53.174;6.730;2022-08-14T00:03:30;20.70;97.30
56542;DHT22;42438;53.174;6.730;2022-08-14T00:06:02;20.70;97.50
56542;DHT22;42438;53.174;6.730;2022-08-14T00:08:33;20.70;97.70
56542;DHT22;42438;53.174;6.730;2022-08-14T00:11:04;20.60;97.90
56542;DHT22;42438;53.174;6.730;2022-08-14T00:13:35;20.60;98.10
56542;DHT22;42438;53.174;6.730;2022-08-14T00:16:06;20.50;98.40
56542;DHT22;42438;53.174;6.730;2022-08-14T00:18:37;20.40;98.60
56542;DHT22;42438;53.174;6.730;2022-08-14T00:21:08;20.40;98.80
56542;DHT22;42438;53.174;6.730;2022-08-14T00:23:39;20.40;99.00
56542;DHT22;42438;53.174;6.730;2022-08-14T00:26:10;20.40;99.20
56542;DHT22;42438;53.174;6.730;2022-08-14T00:28:41;20.30;99.40
56542;DHT22;42438;53.174;6.730;2022-08-14T00:31:11;20.30;99.70
56542;DHT22;42438;53.174;6.730;2022-08-14T00:33:44;20.20;99.90
56542;DHT22;42438;53.174;6.730;2022-08-14T00:36:15;20.20;99.90
56542;DHT22;42438;53.174;6.730;2022-08-14T00:38:45;20.20;99.90
56542;DHT22;42438;53.174;6.730;2022-08-14T00:41:16;20.20;99.90
56542;DHT22;42438;53.174;6.730;2022-08-14T00:43:47;20.10;99.90
56542;DHT22;42438;53.174;6.730;2022-08-14T00:46:18;20.10;99.90
56542;DHT22;42438;53.174;6.730;2022-08-14T00:48:48;20.10;99.90
56542;DHT22;42438;53.174;6.730;2022-08-14T00:51:20;20.10;99.90
56542;DHT22;42438;53.174;6.730;2022-08-14T00:53:51;20.10;99.90
56542;DHT22;42438;53.174;6.730;2022-08-14T00:56:24;20.00;99.90
56542;DHT22;42438;53.174;6.730;2022-08-14T00:58:54;20.00;99.90
56542;DHT22;42438;53.174;6.730;2022-08-14T01:01:29;20.00;99.90
56542;DHT22;42438;53.174;6.730;2022-08-14T01:04:01;19.90;99.90
56542;DHT22;42438;53.174;6.730;2022-08-14T01:06:32;19.90;99.90
56542;DHT22;42438;53.174;6.730;2022-08-14T01:09:04;19.80;99.90
56542;DHT22;42438;53.174;6.730;2022-08-14T01:11:37;19.80;99.90
56542;DHT22;42438;53.174;6.730;2022-08-14T01:14:08;19.80;99.90
56542;DHT22;42438;53.174;6.730;2022-08-14T01:16:39;19.80;99.90
56542;DHT22;42438;53.174;6.730;2022-08-14T01:19:10;19.70;99.90
56542;DHT22;42438;53.174;6.730;2022-08-14T01:21:59;19.70;99.90
56542;DHT22;42438;53.174;6.730;2022-08-14T01:24:30;19.70;99.90
56542;DHT22;42438;53.174;6.730;2022-08-14T01:27:01;19.70;99.90
56542;DHT22;42438;53.174;6.730;2022-08-14T01:29:34;19.70;99.90
56542;DHT22;42438;53.174;6.730;2022-08-14T01:32:07;19.70;99.90
56542;DHT22;42438;53.174;6.730;2022-08-14T01:34:38;19.70;99.90
56542;DHT22;42438;53.174;6.730;2022-08-14T01:37:09;19.70;99.90
56542;DHT22;42438;53.174;6.730;2022-08-14T01:39:40;19.70;99.90
56542;DHT22;42438;53.174;6.730;2022-08-14T01:42:11;19.60;99.90
56542;DHT22;42438;53.174;6.730;2022-08-14T01:44:42;19.60;99.90
56542;DHT22;42438;53.174;6.730;2022-08-14T01:47:12;19.60;99.90
56542;DHT22;42438;53.174;6.730;2022-08-14T01:49:44;19.60;99.90
56542;DHT22;42438;53.174;6.730;2022-08-14T01:52:15;19.60;99.90
56542;DHT22;42438;53.174;6.730;2022-08-14T01:54:46;19.50;99.90
56542;DHT22;42438;53.174;6.730;2022-08-14T01:57:17;19.50;99.90
56542;DHT22;42438;53.174;6.730;2022-08-14T01:59:48;19.50;99.90
56542;DHT22;42438;53.174;6.730;2022-08-14T02:02:19;19.50;99.90
56542;DHT22;42438;53.174;6.730;2022-08-14T02:04:50;19.40;99.90
56542;DHT22;42438;53.174;6.730;2022-08-14T02:07:20;19.40;99.90
56542;DHT22;42438;53.174;6.730;2022-08-14T02:09:51;19.30;99.90
56542;DHT22;42438;53.174;6.730;2022-08-14T02:12:22;19.30;99.90
56542;DHT22;42438;53.174;6.730;2022-08-14T02:14:54;19.20;99.90
56542;DHT22;42438;53.174;6.730;2022-08-14T02:17:25;19.20;99.90
56542;DHT22;42438;53.174;6.730;2022-08-14T02:19:55;19.20;99.90
56542;DHT22;42438;53.174;6.730;2022-08-14T02:22:26;19.20;99.90
56542;DHT22;42438;53.174;6.730;2022-08-14T02:24:57;19.20;99.90
56542;DHT22;42438;53.174;6.730;2022-08-14T02:27:27;19.10;99.90
56542;DHT22;42438;53.174;6.730;2022-08-14T02:29:59;19.10;99.90
56542;DHT22;42438;53.174;6.730;2022-08-14T02:32:30;19.20;99.90
56542;DHT22;42438;53.174;6.730;2022-08-14T02:35:07;19.20;99.90
56542;DHT22;42438;53.174;6.730;2022-08-14T02:37:49;19.20;99.90
56542;DHT22;42438;53.174;6.730;2022-08-14T02:40:20;19.10;99.90
56542;DHT22;42438;53.174;6.730;2022-08-14T02:42:51;19.10;99.90
56542;DHT22;42438;53.174;6.730;2022-08-14T02:45:22;19.10;99.90
56542;DHT22;42438;53.174;6.730;2022-08-14T02:47:53;19.10;99.90
56542;DHT22;42438;53.174;6.730;2022-08-14T02:50:24;19.10;99.90
56542;DHT22;42438;53.174;6.730;2022-08-14T02:52:54;19.10;99.90
56542;DHT22;42438;53.174;6.730;2022-08-14T02:55:25;19.00;99.90
56542;DHT22;42438;53.174;6.730;2022-08-14T02:57:56;19.00;99.90
56542;DHT22;42438;53.174;6.730;2022-08-14T03:00:27;19.00;99.90
56542;DHT22;42438;53.174;6.730;2022-08-14T03:02:57;18.90;99.90
56542;DHT22;42438;53.174;6.730;2022-08-14T03:05:28;18.90;99.90
56542;DHT22;42438;53.174;6.730;2022-08-14T03:08:06;18.90;99.90
56542;DHT22;42438;53.174;6.730;2022-08-14T03:10:38;18.90;99.90
56542;DHT22;42438;53.174;6.730;2022-08-14T03:13:08;18.90;99.90
56542;DHT22;42438;53.174;6.730;2022-08-14T03:15:39;18.80;99.90
56542;DHT22;42438;53.174;6.730;2022-08-14T03:18:24;18.80;99.90
56542;DHT22;42438;53.174;6.730;2022-08-14T03:20:58;18.80;99.90
56542;DHT22;42438;53.174;6.730;2022-08-14T03:23:29;18.70;99.90
56542;DHT22;42438;53.174;6.730;2022-08-14T03:26:03;18.80;99.90
56542;DHT22;42438;53.174;6.730;2022-08-14T03:28:34;18.70;99.90
56542;DHT22;42438;53.174;6.730;2022-08-14T03:31:06;18.70;99.90
56542;DHT22;42438;53.174;6.730;2022-08-14T03:33:38;18.70;99.90
56542;DHT22;42438;53.174;6.730;2022-08-14T03:36:11;18.60;99.90
56542;DHT22;42438;53.174;6.730;2022-08-14T03:38:45;18.70;99.90
56542;DHT22;42438;53.174;6.730;2022-08-14T03:41:23;18.60;99.90
56542;DHT22;42438;53.174;6.730;2022-08-14T03:43:58;18.60;99.90
56542;DHT22;42438;53.174;6.730;2022-08-14T03:46:35;18.60;99.90
56542;DHT22;42438;53.174;6.730;2022-08-14T03:49:06;18.60;99.90
56542;DHT22;42438;53.174;6.730;2022-08-14T03:51:36;18.60;99.90
56542;DHT22;42438;53.174;6.730;2022-08-14T03:54:07;18.60;99.90
56542;DHT22;42438;53.174;6.730;2022-08-14T03:56:38;18.50;99.90
56542;DHT22;42438;53.174;6.730;2022-08-14T03:59:14;18.50;99.90
56542;DHT22;42438;53.174;6.730;2022-08-14T04:01:44;18.50;99.90
56542;DHT22;42438;53.174;6.730;2022-08-14T04:04:18;18.40;99.90
56542;DHT22;42438;53.174;6.730;2022-08-14T04:06:49;18.50;99.90
56542;DHT22;42438;53.174;6.730;2022-08-14T04:09:20;18.50;99.90
56542;DHT22;42438;53.174;6.730;2022-08-14T04:11:51;18.50;99.90
56542;DHT22;42438;53.174;6.730;2022-08-14T04:14:22;18.50;99.90
56542;DHT22;42438;53.174;6.730;2022-08-14T04:16:53;18.50;99.90
56542;DHT22;42438;53.174;6.730;2022-08-14T04:19:24;18.50;99.90
56542;DHT22;42438;53.174;6.730;2022-08-14T04:21:54;18.50;99.90
56542;DHT22;42438;53.174;6.730;2022-08-14T04:24:25;18.50;99.90
56542;DHT22;42438;53.174;6.730;2022-08-14T04:26:55;18.50;99.90
56542;DHT22;42438;53.174;6.730;2022-08-14T04:29:26;18.50;99.90
56542;DHT22;42438;53.174;6.730;2022-08-14T04:31:57;18.50;99.90
56542;DHT22;42438;53.174;6.730;2022-08-14T04:34:29;18.50;99.90
56542;DHT22;42438;53.174;6.730;2022-08-14T04:37:00;18.60;99.90
56542;DHT22;42438;53.174;6.730;2022-08-14T04:39:49;18.60;99.90
56542;DHT22;42438;53.174;6.730;2022-08-14T04:42:40;18.60;99.90
56542;DHT22;42438;53.174;6.730;2022-08-14T04:45:29;18.50;99.90
56542;DHT22;42438;53.174;6.730;2022-08-14T04:48:12;18.60;99.90
56542;DHT22;42438;53.174;6.730;2022-08-14T04:50:49;18.60;99.90
56542;DHT22;42438;53.174;6.730;2022-08-14T04:53:22;18.50;99.90
56542;DHT22;42438;53.174;6.730;2022-08-14T04:55:54;18.50;99.90
56542;DHT22;42438;53.174;6.730;2022-08-14T04:58:28;18.40;99.90
56542;DHT22;42438;53.174;6.730;2022-08-14T05:01:01;18.40;99.90
56542;DHT22;42438;53.174;6.730;2022-08-14T05:03:34;18.40;99.90
56542;DHT22;42438;53.174;6.730;2022-08-14T05:06:07;18.50;99.90
56542;DHT22;42438;53.174;6.730;2022-08-14T05:08:38;18.50;99.90
56542;DHT22;42438;53.174;6.730;2022-08-14T05:11:09;18.60;99.90
56542;DHT22;42438;53.174;6.730;2022-08-14T05:13:39;18.60;99.90
56542;DHT22;42438;53.174;6.730;2022-08-14T05:16:10;18.60;99.90
56542;DHT22;42438;53.174;6.730;2022-08-14T05:18:42;18.70;99.90
56542;DHT22;42438;53.174;6.730;2022-08-14T05:21:16;18.80;99.90
56542;DHT22;42438;53.174;6.730;2022-08-14T05:23:46;18.90;99.90
56542;DHT22;42438;53.174;6.730;2022-08-14T05:26:17;19.00;99.90
56542;DHT22;42438;53.174;6.730;2022-08-14T05:28:51;19.10;99.90
56542;DHT22;42438;53.174;6.730;2022-08-14T05:31:22;19.20;99.90
56542;DHT22;42438;53.174;6.730;2022-08-14T05:33:53;19.40;99.90
56542;DHT22;42438;53.174;6.730;2022-08-14T05:36:24;19.40;99.90
56542;DHT22;42438;53.174;6.730;2022-08-14T05:38:55;19.50;99.90
56542;DHT22;42438;53.174;6.730;2022-08-14T05:41:26;19.70;99.90
56542;DHT22;42438;53.174;6.730;2022-08-14T05:43:56;19.80;99.90
56542;DHT22;42438;53.174;6.730;2022-08-14T05:46:28;19.90;99.90
56542;DHT22;42438;53.174;6.730;2022-08-14T05:48:58;20.10;99.90
56542;DHT22;42438;53.174;6.730;2022-08-14T05:51:29;20.20;99.90
56542;DHT22;42438;53.174;6.730;2022-08-14T05:54:00;20.40;99.90
56542;DHT22;42438;53.174;6.730;2022-08-14T05:56:30;20.50;99.90
56542;DHT22;42438;53.174;6.730;2022-08-14T05:59:01;20.70;99.90
56542;DHT22;42438;53.174;6.730;2022-08-14T06:01:32;20.80;99.90
56542;DHT22;42438;53.174;6.730;2022-08-14T06:04:03;20.90;99.90
56542;DHT22;42438;53.174;6.730;2022-08-14T06:06:34;21.00;99.90
56542;DHT22;42438;53.174;6.730;2022-08-14T06:09:05;21.10;99.90
56542;DHT22;42438;53.174;6.730;2022-08-14T06:11:38;21.30;99.90
56542;DHT22;42438;53.174;6.730;2022-08-14T06:14:08;21.30;99.90
56542;DHT22;42438;53.174;6.730;2022-08-14T06:16:40;21.50;99.90
56542;DHT22;42438;53.174;6.730;2022-08-14T06:19:14;21.60;99.90
56542;DHT22;42438;53.174;6.730;2022-08-14T06:21:45;21.70;99.90
56542;DHT22;42438;53.174;6.730;2022-08-14T06:24:15;21.80;99.90
56542;DHT22;42438;53.174;6.730;2022-08-14T06:26:46;21.90;99.90
56542;DHT22;42438;53.174;6.730;2022-08-14T06:29:17;21.90;99.90
56542;DHT22;42438;53.174;6.730;2022-08-14T06:31:47;22.00;99.90
56542;DHT22;42438;53.174;6.730;2022-08-14T06:34:18;22.10;99.90
56542;DHT22;42438;53.174;6.730;2022-08-14T06:36:49;22.20;99.90
56542;DHT22;42438;53.174;6.730;2022-08-14T06:39:19;22.30;99.90
56542;DHT22;42438;53.174;6.730;2022-08-14T06:41:50;22.30;99.90
56542;DHT22;42438;53.174;6.730;2022-08-14T06:44:21;22.40;99.90
56542;DHT22;42438;53.174;6.730;2022-08-14T06:46:51;22.40;99.90
56542;DHT22;42438;53.174;6.730;2022-08-14T06:49:25;22.50;99.90
56542;DHT22;42438;53.174;6.730;2022-08-14T06:51:56;22.50;99.90
56542;DHT22;42438;53.174;6.730;2022-08-14T06:54:26;22.60;99.90
56542;DHT22;42438;53.174;6.730;2022-08-14T06:56:57;22.70;99.90
56542;DHT22;42438;53.174;6.730;2022-08-14T06:59:28;22.80;99.90
56542;DHT22;42438;53.174;6.730;2022-08-14T07:01:58;22.90;99.90
56542;DHT22;42438;53.174;6.730;2022-08-14T07:04:48;23.00;99.90
56542;DHT22;42438;53.174;6.730;2022-08-14T07:07:39;23.10;99.90
56542;DHT22;42438;53.174;6.730;2022-08-14T07:10:10;23.20;99.90
56542;DHT22;42438;53.174;6.730;2022-08-14T07:12:41;23.30;99.90
56542;DHT22;42438;53.174;6.730;2022-08-14T07:15:12;23.30;99.90
56542;DHT22;42438;53.174;6.730;2022-08-14T07:17:45;23.50;99.90
56542;DHT22;42438;53.174;6.730;2022-08-14T07:20:16;23.50;99.90
56542;DHT22;42438;53.174;6.730;2022-08-14T07:22:49;23.60;99.90
56542;DHT22;42438;53.174;6.730;2022-08-14T07:25:20;23.70;99.90
56542;DHT22;42438;53.174;6.730;2022-08-14T07:27:51;23.80;99.90
56542;DHT22;42438;53.174;6.730;2022-08-14T07:30:22;23.90;99.90
56542;DHT22;42438;53.174;6.730;2022-08-14T07:32:53;24.00;99.90
56542;DHT22;42438;53.174;6.730;2022-08-14T07:35:24;24.10;99.90
56542;DHT22;42438;53.174;6.730;2022-08-14T07:37:54;24.20;99.90
56542;DHT22;42438;53.174;6.730;2022-08-14T07:40:25;24.30;99.90
56542;DHT22;42438;53.174;6.730;2022-08-14T07:42:56;24.30;99.90
56542;DHT22;42438;53.174;6.730;2022-08-14T07:45:27;24.40;99.90
56542;DHT22;42438;53.174;6.730;2022-08-14T07:47:58;24.50;99.90
56542;DHT22;42438;53.174;6.730;2022-08-14T07:50:29;24.60;99.90
56542;DHT22;42438;53.174;6.730;2022-08-14T07:52:59;24.70;99.90
56542;DHT22;42438;53.174;6.730;2022-08-14T07:55:31;24.80;99.90
56542;DHT22;42438;53.174;6.730;2022-08-14T07:58:02;24.90;99.90
56542;DHT22;42438;53.174;6.730;2022-08-14T08:00:33;25.10;99.90
56542;DHT22;42438;53.174;6.730;2022-08-14T08:03:06;25.20;99.90
56542;DHT22;42438;53.174;6.730;2022-08-14T08:05:40;25.30;99.90
56542;DHT22;42438;53.174;6.730;2022-08-14T08:08:11;25.50;99.60
56542;DHT22;42438;53.174;6.730;2022-08-14T08:10:43;25.60;99.40
56542;DHT22;42438;53.174;6.730;2022-08-14T08:13:16;25.70;98.90
56542;DHT22;42438;53.174;6.730;2022-08-14T08:15:52;25.70;98.40
56542;DHT22;42438;53.174;6.730;2022-08-14T08:18:26;25.80;98.50
56542;DHT22;42438;53.174;6.730;2022-08-14T08:20:58;26.00;98.40
56542;DHT22;42438;53.174;6.730;2022-08-14T08:23:30;26.10;98.40
56542;DHT22;42438;53.174;6.730;2022-08-14T08:26:02;26.20;98.10
56542;DHT22;42438;53.174;6.730;2022-08-14T08:31:05;26.40;97.50
56542;DHT22;42438;53.174;6.730;2022-08-14T08:33:36;26.60;97.80
56542;DHT22;42438;53.174;6.730;2022-08-14T08:36:08;26.70;97.10
56542;DHT22;42438;53.174;6.730;2022-08-14T08:38:42;26.90;97.30
56542;DHT22;42438;53.174;6.730;2022-08-14T08:41:15;27.00;96.80
56542;DHT22;42438;53.174;6.730;2022-08-14T08:43:45;27.10;96.60
56542;DHT22;42438;53.174;6.730;2022-08-14T08:46:19;27.20;96.40
56542;DHT22;42438;53.174;6.730;2022-08-14T08:48:52;27.50;99.60
56542;DHT22;42438;53.174;6.730;2022-08-14T08:56:51;27.70;98.50
56542;DHT22;42438;53.174;6.730;2022-08-14T08:59:30;28.00;98.10
56542;DHT22;42438;53.174;6.730;2022-08-14T09:02:07;28.00;99.70
56542;DHT22;42438;53.174;6.730;2022-08-14T09:04:40;28.00;99.90
56542;DHT22;42438;53.174;6.730;2022-08-14T09:07:13;28.00;94.90
56542;DHT22;42438;53.174;6.730;2022-08-14T09:09:44;28.10;94.90
56542;DHT22;42438;53.174;6.730;2022-08-14T09:12:20;28.20;94.80
56542;DHT22;42438;53.174;6.730;2022-08-14T09:14:51;28.30;96.70
56542;DHT22;42438;53.174;6.730;2022-08-14T09:17:23;28.50;96.10
56542;DHT22;42438;53.174;6.730;2022-08-14T09:19:54;28.70;97.30
56542;DHT22;42438;53.174;6.730;2022-08-14T09:22:26;28.90;96.00
56542;DHT22;42438;53.174;6.730;2022-08-14T09:24:57;28.90;94.50
56542;DHT22;42438;53.174;6.730;2022-08-14T09:27:28;28.90;94.00
56542;DHT22;42438;53.174;6.730;2022-08-14T09:29:58;29.00;99.90
56542;DHT22;42438;53.174;6.730;2022-08-14T09:35:59;29.10;92.90
56542;DHT22;42438;53.174;6.730;2022-08-14T09:41:47;29.20;92.70
56542;DHT22;42438;53.174;6.730;2022-08-14T09:47:11;29.40;95.00
56542;DHT22;42438;53.174;6.730;2022-08-14T09:49:43;29.60;92.40
56542;DHT22;42438;53.174;6.730;2022-08-14T09:52:16;29.60;92.40
56542;DHT22;42438;53.174;6.730;2022-08-14T09:54:47;29.70;92.10
56542;DHT22;42438;53.174;6.730;2022-08-14T09:57:26;29.80;91.80
56542;DHT22;42438;53.174;6.730;2022-08-14T10:00:10;29.90;92.10
56542;DHT22;42438;53.174;6.730;2022-08-14T10:02:56;30.10;91.60
56542;DHT22;42438;53.174;6.730;2022-08-14T10:05:34;30.20;91.00
56542;DHT22;42438;53.174;6.730;2022-08-14T10:08:18;30.00;91.00
56542;DHT22;42438;53.174;6.730;2022-08-14T10:10:49;30.00;90.30
56542;DHT22;42438;53.174;6.730;2022-08-14T10:13:22;30.00;90.90
56542;DHT22;42438;53.174;6.730;2022-08-14T10:15:58;30.10;90.50
56542;DHT22;42438;53.174;6.730;2022-08-14T10:18:29;30.20;90.20
56542;DHT22;42438;53.174;6.730;2022-08-14T10:21:00;30.30;90.50
56542;DHT22;42438;53.174;6.730;2022-08-14T10:23:42;30.30;90.30
56542;DHT22;42438;53.174;6.730;2022-08-14T10:26:15;30.30;90.00
56542;DHT22;42438;53.174;6.730;2022-08-14T10:28:50;30.40;90.00
56542;DHT22;42438;53.174;6.730;2022-08-14T10:31:24;30.40;89.00
56542;DHT22;42438;53.174;6.730;2022-08-14T10:36:43;30.50;92.00
56542;DHT22;42438;53.174;6.730;2022-08-14T10:39:18;30.50;93.50
56542;DHT22;42438;53.174;6.730;2022-08-14T10:41:59;30.70;91.70
56542;DHT22;42438;53.174;6.730;2022-08-14T10:44:50;31.10;93.70
56542;DHT22;42438;53.174;6.730;2022-08-14T10:47:21;30.80;91.40
56542;DHT22;42438;53.174;6.730;2022-08-14T10:50:03;31.00;92.00
56542;DHT22;42438;53.174;6.730;2022-08-14T10:52:33;31.10;90.30
56542;DHT22;42438;53.174;6.730;2022-08-14T10:55:14;31.10;88.30
56542;DHT22;42438;53.174;6.730;2022-08-14T10:57:47;31.10;86.90
56542;DHT22;42438;53.174;6.730;2022-08-14T11:00:22;31.20;88.00
56542;DHT22;42438;53.174;6.730;2022-08-14T11:03:08;31.30;90.80
56542;DHT22;42438;53.174;6.730;2022-08-14T11:05:45;31.40;90.00
56542;DHT22;42438;53.174;6.730;2022-08-14T11:08:17;31.20;90.70
56542;DHT22;42438;53.174;6.730;2022-08-14T11:11:00;31.40;91.20
56542;DHT22;42438;53.174;6.730;2022-08-14T11:13:32;31.50;91.10
56542;DHT22;42438;53.174;6.730;2022-08-14T11:16:03;31.50;85.60
56542;DHT22;42438;53.174;6.730;2022-08-14T11:18:35;31.60;85.80
56542;DHT22;42438;53.174;6.730;2022-08-14T11:21:06;31.70;84.90
56542;DHT22;42438;53.174;6.730;2022-08-14T11:23:38;31.70;84.80
56542;DHT22;42438;53.174;6.730;2022-08-14T11:26:09;31.70;84.30
56542;DHT22;42438;53.174;6.730;2022-08-14T11:28:41;31.70;83.70
56542;DHT22;42438;53.174;6.730;2022-08-14T11:31:21;31.70;83.80
56542;DHT22;42438;53.174;6.730;2022-08-14T11:33:53;31.90;86.00
56542;DHT22;42438;53.174;6.730;2022-08-14T11:36:28;32.00;84.00
56542;DHT22;42438;53.174;6.730;2022-08-14T11:38:59;32.10;83.90
56542;DHT22;42438;53.174;6.730;2022-08-14T11:41:33;32.20;82.80
56542;DHT22;42438;53.174;6.730;2022-08-14T11:44:04;32.20;82.40
56542;DHT22;42438;53.174;6.730;2022-08-14T11:46:34;32.10;82.40
56542;DHT22;42438;53.174;6.730;2022-08-14T11:49:05;32.10;82.40
56542;DHT22;42438;53.174;6.730;2022-08-14T11:51:36;32.10;81.80
56542;DHT22;42438;53.174;6.730;2022-08-14T11:54:06;32.20;82.60
56542;DHT22;42438;53.174;6.730;2022-08-14T11:56:39;32.30;81.90
56542;DHT22;42438;53.174;6.730;2022-08-14T11:59:15;32.30;80.70
56542;DHT22;42438;53.174;6.730;2022-08-14T12:01:50;32.40;80.40
56542;DHT22;42438;53.174;6.730;2022-08-14T12:04:21;32.60;81.50
56542;DHT22;42438;53.174;6.730;2022-08-14T12:06:53;32.90;82.10
56542;DHT22;42438;53.174;6.730;2022-08-14T12:09:33;33.00;80.30
56542;DHT22;42438;53.174;6.730;2022-08-14T12:12:33;33.00;78.00
56542;DHT22;42438;53.174;6.730;2022-08-14T12:15:07;33.10;77.00
56542;DHT22;42438;53.174;6.730;2022-08-14T12:17:46;33.00;78.60
56542;DHT22;42438;53.174;6.730;2022-08-14T12:20:34;32.90;78.00
56542;DHT22;42438;53.174;6.730;2022-08-14T12:23:19;33.00;77.30
56542;DHT22;42438;53.174;6.730;2022-08-14T12:26:06;33.10;77.10
56542;DHT22;42438;53.174;6.730;2022-08-14T12:28:37;33.00;76.60
56542;DHT22;42438;53.174;6.730;2022-08-14T12:31:19;33.10;78.10
56542;DHT22;42438;53.174;6.730;2022-08-14T12:33:58;33.20;75.50
56542;DHT22;42438;53.174;6.730;2022-08-14T12:36:31;33.30;76.00
56542;DHT22;42438;53.174;6.730;2022-08-14T12:39:20;33.30;76.60
56542;DHT22;42438;53.174;6.730;2022-08-14T12:41:54;33.30;75.70
56542;DHT22;42438;53.174;6.730;2022-08-14T12:44:38;33.30;77.40
56542;DHT22;42438;53.174;6.730;2022-08-14T12:47:12;33.10;77.10
56542;DHT22;42438;53.174;6.730;2022-08-14T12:49:53;32.90;77.10
56542;DHT22;42438;53.174;6.730;2022-08-14T12:52:36;32.90;76.40
56542;DHT22;42438;53.174;6.730;2022-08-14T12:55:14;32.70;76.80
56542;DHT22;42438;53.174;6.730;2022-08-14T12:57:46;32.80;77.00
56542;DHT22;42438;53.174;6.730;2022-08-14T13:00:21;32.90;76.70
56542;DHT22;42438;53.174;6.730;2022-08-14T13:02:54;32.90;76.60
56542;DHT22;42438;53.174;6.730;2022-08-14T13:05:28;32.60;76.30
56542;DHT22;42438;53.174;6.730;2022-08-14T13:08:03;32.40;76.50
56542;DHT22;42438;53.174;6.730;2022-08-14T13:10:34;32.20;76.40
56542;DHT22;42438;53.174;6.730;2022-08-14T13:13:06;31.90;77.70
56542;DHT22;42438;53.174;6.730;2022-08-14T13:15:39;32.00;78.30
56542;DHT22;42438;53.174;6.730;2022-08-14T13:18:12;32.00;77.50
56542;DHT22;42438;53.174;6.730;2022-08-14T13:20:46;32.00;77.40
56542;DHT22;42438;53.174;6.730;2022-08-14T13:23:18;32.10;77.20
56542;DHT22;42438;53.174;6.730;2022-08-14T13:25:49;32.20;76.90
56542;DHT22;42438;53.174;6.730;2022-08-14T13:28:22;32.10;77.50
56542;DHT22;42438;53.174;6.730;2022-08-14T13:30:56;32.10;77.70
56542;DHT22;42438;53.174;6.730;2022-08-14T13:33:28;32.20;78.40
56542;DHT22;42438;53.174;6.730;2022-08-14T13:36:04;32.40;77.40
56542;DHT22;42438;53.174;6.730;2022-08-14T13:38:35;32.70;77.80
56542;DHT22;42438;53.174;6.730;2022-08-14T13:41:06;32.90;77.30
56542;DHT22;42438;53.174;6.730;2022-08-14T13:43:38;33.10;77.00
56542;DHT22;42438;53.174;6.730;2022-08-14T13:46:09;33.30;76.00
56542;DHT22;42438;53.174;6.730;2022-08-14T13:48:40;33.30;74.80
56542;DHT22;42438;53.174;6.730;2022-08-14T13:51:11;33.30;74.90
56542;DHT22;42438;53.174;6.730;2022-08-14T13:53:46;33.20;75.10
56542;DHT22;42438;53.174;6.730;2022-08-14T13:56:17;33.20;76.00
56542;DHT22;42438;53.174;6.730;2022-08-14T13:58:48;33.40;76.30
56542;DHT22;42438;53.174;6.730;2022-08-14T14:01:20;33.70;76.00
56542;DHT22;42438;53.174;6.730;2022-08-14T14:03:54;33.80;76.20
56542;DHT22;42438;53.174;6.730;2022-08-14T14:06:25;34.00;75.80
56542;DHT22;42438;53.174;6.730;2022-08-14T14:08:57;34.00;74.90
56542;DHT22;42438;53.174;6.730;2022-08-14T14:11:27;34.10;74.50
56542;DHT22;42438;53.174;6.730;2022-08-14T14:13:58;34.00;76.70
56542;DHT22;42438;53.174;6.730;2022-08-14T14:16:29;33.90;76.10
56542;DHT22;42438;53.174;6.730;2022-08-14T14:19:00;33.90;76.10
56542;DHT22;42438;53.174;6.730;2022-08-14T14:21:32;34.10;76.70
56542;DHT22;42438;53.174;6.730;2022-08-14T14:24:04;34.00;75.40
56542;DHT22;42438;53.174;6.730;2022-08-14T14:26:35;34.10;74.90
56542;DHT22;42438;53.174;6.730;2022-08-14T14:31:38;34.20;72.80
56542;DHT22;42438;53.174;6.730;2022-08-14T14:34:09;34.30;73.40
56542;DHT22;42438;53.174;6.730;2022-08-14T14:36:42;34.40;77.10
56542;DHT22;42438;53.174;6.730;2022-08-14T14:39:14;34.50;75.70
56542;DHT22;42438;53.174;6.730;2022-08-14T14:41:48;34.10;74.90
56542;DHT22;42438;53.174;6.730;2022-08-14T14:44:22;33.50;74.90
56542;DHT22;42438;53.174;6.730;2022-08-14T14:46:54;33.30;75.00
56542;DHT22;42438;53.174;6.730;2022-08-14T14:49:26;33.10;74.90
56542;DHT22;42438;53.174;6.730;2022-08-14T14:51:58;33.10;74.40
56542;DHT22;42438;53.174;6.730;2022-08-14T14:54:30;32.60;74.30
56542;DHT22;42438;53.174;6.730;2022-08-14T14:57:03;32.60;75.10
56542;DHT22;42438;53.174;6.730;2022-08-14T14:59:34;32.60;75.40
56542;DHT22;42438;53.174;6.730;2022-08-14T15:02:07;32.40;75.20
56542;DHT22;42438;53.174;6.730;2022-08-14T15:04:38;32.20;74.90
56542;DHT22;42438;53.174;6.730;2022-08-14T15:07:09;31.80;74.70
56542;DHT22;42438;53.174;6.730;2022-08-14T15:09:39;31.60;76.00
56542;DHT22;42438;53.174;6.730;2022-08-14T15:12:10;31.60;76.10
56542;DHT22;42438;53.174;6.730;2022-08-14T15:14:41;31.50;76.00
56542;DHT22;42438;53.174;6.730;2022-08-14T15:17:11;31.50;75.40
56542;DHT22;42438;53.174;6.730;2022-08-14T15:19:42;31.40;75.40
56542;DHT22;42438;53.174;6.730;2022-08-14T15:22:13;31.40;75.70
56542;DHT22;42438;53.174;6.730;2022-08-14T15:24:44;31.60;75.80
56542;DHT22;42438;53.174;6.730;2022-08-14T15:27:14;32.00;75.30
56542;DHT22;42438;53.174;6.730;2022-08-14T15:29:45;32.20;74.40
56542;DHT22;42438;53.174;6.730;2022-08-14T15:32:16;32.30;73.90
56542;DHT22;42438;53.174;6.730;2022-08-14T15:34:47;32.30;73.70
56542;DHT22;42438;53.174;6.730;2022-08-14T15:37:18;32.30;74.10
56542;DHT22;42438;53.174;6.730;2022-08-14T15:39:51;32.40;73.90
56542;DHT22;42438;53.174;6.730;2022-08-14T15:42:22;32.60;73.70
56542;DHT22;42438;53.174;6.730;2022-08-14T15:44:52;32.80;74.30
56542;DHT22;42438;53.174;6.730;2022-08-14T15:47:25;33.00;73.50
56542;DHT22;42438;53.174;6.730;2022-08-14T15:50:00;33.20;73.40
56542;DHT22;42438;53.174;6.730;2022-08-14T15:52:33;33.30;73.20
56542;DHT22;42438;53.174;6.730;2022-08-14T15:55:10;33.30;72.50
56542;DHT22;42438;53.174;6.730;2022-08-14T15:57:42;33.20;72.40
56542;DHT22;42438;53.174;6.730;2022-08-14T16:00:16;33.20;72.20
56542;DHT22;42438;53.174;6.730;2022-08-14T16:03:05;33.20;71.50
56542;DHT22;42438;53.174;6.730;2022-08-14T16:05:38;33.30;72.30
56542;DHT22;42438;53.174;6.730;2022-08-14T16:08:10;33.40;71.80
56542;DHT22;42438;53.174;6.730;2022-08-14T16:10:41;33.30;72.30
56542;DHT22;42438;53.174;6.730;2022-08-14T16:13:13;33.20;71.70
56542;DHT22;42438;53.174;6.730;2022-08-14T16:15:44;33.20;72.00
56542;DHT22;42438;53.174;6.730;2022-08-14T16:18:15;33.20;71.80
56542;DHT22;42438;53.174;6.730;2022-08-14T16:20:50;33.20;71.80
56542;DHT22;42438;53.174;6.730;2022-08-14T16:23:26;33.10;71.50
56542;DHT22;42438;53.174;6.730;2022-08-14T16:25:57;33.10;72.60
56542;DHT22;42438;53.174;6.730;2022-08-14T16:28:32;33.10;72.30